sensor_id;sensor_type;location;lat;lon;timestamp;P1;durP1;ratioP1;P2;durP2;ratioP2
49458;SDS011;35354;51.296;16.924;2023-04-23T00:01:27;25.13;;;17.00;;
49458;SDS011;35354;51.296;16.924;2023-04-23T00:03:56;25.92;;;18.48;;
49458;SDS011;35354;51.296;16.924;2023-04-23T00:06:22;23.17;;;17.88;;
49458;SDS011;35354;51.296;16.924;2023-04-23T00:08:50;22.85;;;17.05;;
49458;SDS011;35354;51.296;16.924;2023-04-23T00:11:17;22.05;;;17.90;;
49458;SDS011;35354;51.296;16.924;2023-04-23T00:13:43;23.30;;;18.00;;
49458;SDS011;35354;51.296;16.924;2023-04-23T00:16:11;24.50;;;18.08;;
49458;SDS011;35354;51.296;16.924;2023-04-23T00:18:37;24.52;;;17.60;;
49458;SDS011;35354;51.296;16.924;2023-04-23T00:21:02;24.58;;;18.35;;
49458;SDS011;35354;51.296;16.924;2023-04-23T00:23:27;28.38;;;18.10;;
49458;SDS011;35354;51.296;16.924;2023-04-23T00:25:53;28.25;;;19.13;;
49458;SDS011;35354;51.296;16.924;2023-04-23T00:28:18;22.35;;;17.00;;
49458;SDS011;35354;51.296;16.924;2023-04-23T00:30:43;24.00;;;17.42;;
49458;SDS011;35354;51.296;16.924;2023-04-23T00:33:09;26.85;;;18.65;;
49458;SDS011;35354;51.296;16.924;2023-04-23T00:35:34;22.92;;;17.95;;
49458;SDS011;35354;51.296;16.924;2023-04-23T00:38:00;28.42;;;18.90;;
49458;SDS011;35354;51.296;16.924;2023-04-23T00:40:25;30.35;;;19.27;;
49458;SDS011;35354;51.296;16.924;2023-04-23T00:42:50;28.38;;;19.50;;
49458;SDS011;35354;51.296;16.924;2023-04-23T00:45:17;28.95;;;19.75;;
49458;SDS011;35354;51.296;16.924;2023-04-23T00:47:43;33.13;;;21.63;;
49458;SDS011;35354;51.296;16.924;2023-04-23T00:50:10;30.80;;;20.25;;
49458;SDS011;35354;51.296;16.924;2023-04-23T00:52:37;29.15;;;20.88;;
49458;SDS011;35354;51.296;16.924;2023-04-23T00:55:04;29.13;;;20.38;;
49458;SDS011;35354;51.296;16.924;2023-04-23T00:57:35;26.98;;;17.88;;
49458;SDS011;35354;51.296;16.924;2023-04-23T01:00:03;32.13;;;20.98;;
49458;SDS011;35354;51.296;16.924;2023-04-23T01:02:30;28.08;;;20.27;;
49458;SDS011;35354;51.296;16.924;2023-04-23T01:04:56;29.88;;;20.55;;
49458;SDS011;35354;51.296;16.924;2023-04-23T01:07:23;25.15;;;19.58;;
49458;SDS011;35354;51.296;16.924;2023-04-23T01:09:50;26.00;;;19.75;;
49458;SDS011;35354;51.296;16.924;2023-04-23T01:12:15;28.52;;;19.88;;
49458;SDS011;35354;51.296;16.924;2023-04-23T01:14:41;25.38;;;18.73;;
49458;SDS011;35354;51.296;16.924;2023-04-23T01:17:07;30.17;;;19.92;;
49458;SDS011;35354;51.296;16.924;2023-04-23T01:19:33;29.50;;;20.58;;
49458;SDS011;35354;51.296;16.924;2023-04-23T01:21:59;28.75;;;20.25;;
49458;SDS011;35354;51.296;16.924;2023-04-23T01:24:25;29.58;;;21.58;;
49458;SDS011;35354;51.296;16.924;2023-04-23T01:26:55;26.25;;;20.98;;
49458;SDS011;35354;51.296;16.924;2023-04-23T01:29:22;32.85;;;20.20;;
49458;SDS011;35354;51.296;16.924;2023-04-23T01:31:48;28.63;;;19.85;;
49458;SDS011;35354;51.296;16.924;2023-04-23T01:34:14;27.63;;;21.27;;
49458;SDS011;35354;51.296;16.924;2023-04-23T01:36:39;26.65;;;20.60;;
49458;SDS011;35354;51.296;16.924;2023-04-23T01:39:06;28.55;;;20.85;;
49458;SDS011;35354;51.296;16.924;2023-04-23T01:41:31;29.33;;;20.67;;
49458;SDS011;35354;51.296;16.924;2023-04-23T01:43:58;27.77;;;19.77;;
49458;SDS011;35354;51.296;16.924;2023-04-23T01:46:24;28.17;;;19.92;;
49458;SDS011;35354;51.296;16.924;2023-04-23T01:48:49;27.27;;;18.80;;
49458;SDS011;35354;51.296;16.924;2023-04-23T01:51:15;29.15;;;20.80;;
49458;SDS011;35354;51.296;16.924;2023-04-23T01:53:40;27.88;;;20.63;;
49458;SDS011;35354;51.296;16.924;2023-04-23T01:56:06;28.48;;;19.58;;
49458;SDS011;35354;51.296;16.924;2023-04-23T01:58:33;27.95;;;18.52;;
49458;SDS011;35354;51.296;16.924;2023-04-23T02:00:59;23.83;;;18.35;;
49458;SDS011;35354;51.296;16.924;2023-04-23T02:03:24;26.20;;;19.20;;
49458;SDS011;35354;51.296;16.924;2023-04-23T02:05:50;29.40;;;18.95;;
49458;SDS011;35354;51.296;16.924;2023-04-23T02:08:18;24.45;;;18.77;;
49458;SDS011;35354;51.296;16.924;2023-04-23T02:10:43;24.27;;;18.60;;
49458;SDS011;35354;51.296;16.924;2023-04-23T02:13:09;24.45;;;18.50;;
49458;SDS011;35354;51.296;16.924;2023-04-23T02:15:34;25.88;;;17.90;;
49458;SDS011;35354;51.296;16.924;2023-04-23T02:18:02;27.85;;;18.75;;
49458;SDS011;35354;51.296;16.924;2023-04-23T02:20:27;26.70;;;19.83;;
49458;SDS011;35354;51.296;16.924;2023-04-23T02:22:52;25.90;;;18.73;;
49458;SDS011;35354;51.296;16.924;2023-04-23T02:25:18;28.08;;;19.10;;
49458;SDS011;35354;51.296;16.924;2023-04-23T02:27:45;24.63;;;17.63;;
49458;SDS011;35354;51.296;16.924;2023-04-23T02:30:11;24.80;;;16.17;;
49458;SDS011;35354;51.296;16.924;2023-04-23T02:32:37;21.83;;;17.05;;
49458;SDS011;35354;51.296;16.924;2023-04-23T02:35:02;24.40;;;17.20;;
49458;SDS011;35354;51.296;16.924;2023-04-23T02:37:31;22.58;;;17.05;;
49458;SDS011;35354;51.296;16.924;2023-04-23T02:39:57;24.00;;;17.50;;
49458;SDS011;35354;51.296;16.924;2023-04-23T02:42:22;23.45;;;17.35;;
49458;SDS011;35354;51.296;16.924;2023-04-23T02:44:47;24.30;;;16.88;;
49458;SDS011;35354;51.296;16.924;2023-04-23T02:47:13;21.98;;;15.35;;
49458;SDS011;35354;51.296;16.924;2023-04-23T02:49:38;19.30;;;14.80;;
49458;SDS011;35354;51.296;16.924;2023-04-23T02:52:03;23.55;;;16.55;;
49458;SDS011;35354;51.296;16.924;2023-04-23T02:54:29;26.52;;;17.35;;
49458;SDS011;35354;51.296;16.924;2023-04-23T02:56:56;21.58;;;17.00;;
49458;SDS011;35354;51.296;16.924;2023-04-23T02:59:22;23.92;;;15.82;;
49458;SDS011;35354;51.296;16.924;2023-04-23T03:01:47;22.27;;;15.25;;
49458;SDS011;35354;51.296;16.924;2023-04-23T03:04:12;22.80;;;15.73;;
49458;SDS011;35354;51.296;16.924;2023-04-23T03:06:38;21.35;;;16.17;;
49458;SDS011;35354;51.296;16.924;2023-04-23T03:09:03;23.63;;;15.48;;
49458;SDS011;35354;51.296;16.924;2023-04-23T03:11:29;28.30;;;15.93;;
49458;SDS011;35354;51.296;16.924;2023-04-23T03:13:54;22.63;;;15.98;;
49458;SDS011;35354;51.296;16.924;2023-04-23T03:16:19;22.65;;;17.23;;
49458;SDS011;35354;51.296;16.924;2023-04-23T03:18:45;21.55;;;15.65;;
49458;SDS011;35354;51.296;16.924;2023-04-23T03:21:10;19.88;;;15.32;;
49458;SDS011;35354;51.296;16.924;2023-04-23T03:23:36;22.73;;;15.27;;
49458;SDS011;35354;51.296;16.924;2023-04-23T03:26:01;21.23;;;14.18;;
49458;SDS011;35354;51.296;16.924;2023-04-23T03:28:26;22.90;;;14.27;;
49458;SDS011;35354;51.296;16.924;2023-04-23T03:30:52;18.52;;;14.27;;
49458;SDS011;35354;51.296;16.924;2023-04-23T03:33:17;20.23;;;14.10;;
49458;SDS011;35354;51.296;16.924;2023-04-23T03:35:42;21.55;;;14.38;;
49458;SDS011;35354;51.296;16.924;2023-04-23T03:38:08;19.58;;;13.98;;
49458;SDS011;35354;51.296;16.924;2023-04-23T03:40:33;21.90;;;13.95;;
49458;SDS011;35354;51.296;16.924;2023-04-23T03:42:58;20.40;;;13.57;;
49458;SDS011;35354;51.296;16.924;2023-04-23T03:45:24;18.58;;;12.75;;
49458;SDS011;35354;51.296;16.924;2023-04-23T03:47:50;16.77;;;12.23;;
49458;SDS011;35354;51.296;16.924;2023-04-23T03:50:15;16.52;;;12.25;;
49458;SDS011;35354;51.296;16.924;2023-04-23T03:52:41;20.63;;;12.98;;
49458;SDS011;35354;51.296;16.924;2023-04-23T03:55:07;21.38;;;14.63;;
49458;SDS011;35354;51.296;16.924;2023-04-23T03:57:33;19.98;;;14.73;;
49458;SDS011;35354;51.296;16.924;2023-04-23T03:59:59;22.90;;;14.38;;
49458;SDS011;35354;51.296;16.924;2023-04-23T04:02:25;22.17;;;15.38;;
49458;SDS011;35354;51.296;16.924;2023-04-23T04:04:50;23.95;;;15.70;;
49458;SDS011;35354;51.296;16.924;2023-04-23T04:07:16;31.35;;;27.80;;
49458;SDS011;35354;51.296;16.924;2023-04-23T04:09:42;24.05;;;15.43;;
49458;SDS011;35354;51.296;16.924;2023-04-23T04:12:07;17.27;;;13.55;;
49458;SDS011;35354;51.296;16.924;2023-04-23T04:14:33;22.38;;;15.35;;
49458;SDS011;35354;51.296;16.924;2023-04-23T04:16:58;15.27;;;12.23;;
49458;SDS011;35354;51.296;16.924;2023-04-23T04:19:24;24.45;;;16.50;;
49458;SDS011;35354;51.296;16.924;2023-04-23T04:21:49;27.50;;;17.17;;
49458;SDS011;35354;51.296;16.924;2023-04-23T04:24:15;42.45;;;28.13;;
49458;SDS011;35354;51.296;16.924;2023-04-23T04:26:42;24.92;;;19.88;;
49458;SDS011;35354;51.296;16.924;2023-04-23T04:29:08;33.42;;;22.13;;
49458;SDS011;35354;51.296;16.924;2023-04-23T04:31:34;25.83;;;16.83;;
49458;SDS011;35354;51.296;16.924;2023-04-23T04:33:59;22.30;;;15.55;;
49458;SDS011;35354;51.296;16.924;2023-04-23T04:36:25;21.35;;;15.82;;
49458;SDS011;35354;51.296;16.924;2023-04-23T04:38:52;20.67;;;14.73;;
49458;SDS011;35354;51.296;16.924;2023-04-23T04:41:20;27.17;;;17.27;;
49458;SDS011;35354;51.296;16.924;2023-04-23T04:43:46;23.27;;;16.40;;
49458;SDS011;35354;51.296;16.924;2023-04-23T04:46:12;29.10;;;18.75;;
49458;SDS011;35354;51.296;16.924;2023-04-23T04:48:38;29.85;;;19.60;;
49458;SDS011;35354;51.296;16.924;2023-04-23T04:51:03;25.42;;;18.40;;
49458;SDS011;35354;51.296;16.924;2023-04-23T04:53:28;23.27;;;17.92;;
49458;SDS011;35354;51.296;16.924;2023-04-23T04:55:54;24.27;;;18.67;;
49458;SDS011;35354;51.296;16.924;2023-04-23T04:58:19;21.90;;;15.43;;
49458;SDS011;35354;51.296;16.924;2023-04-23T05:00:45;22.95;;;17.40;;
49458;SDS011;35354;51.296;16.924;2023-04-23T05:03:11;23.83;;;18.13;;
49458;SDS011;35354;51.296;16.924;2023-04-23T05:05:37;25.13;;;15.27;;
49458;SDS011;35354;51.296;16.924;2023-04-23T05:08:02;19.23;;;14.90;;
49458;SDS011;35354;51.296;16.924;2023-04-23T05:10:28;19.70;;;13.65;;
49458;SDS011;35354;51.296;16.924;2023-04-23T05:12:55;22.42;;;15.00;;
49458;SDS011;35354;51.296;16.924;2023-04-23T05:15:21;16.60;;;13.18;;
49458;SDS011;35354;51.296;16.924;2023-04-23T05:17:46;22.90;;;13.82;;
49458;SDS011;35354;51.296;16.924;2023-04-23T05:20:12;18.10;;;13.40;;
49458;SDS011;35354;51.296;16.924;2023-04-23T05:22:39;17.63;;;12.80;;
49458;SDS011;35354;51.296;16.924;2023-04-23T05:25:06;21.15;;;13.57;;
49458;SDS011;35354;51.296;16.924;2023-04-23T05:27:32;19.13;;;14.63;;
49458;SDS011;35354;51.296;16.924;2023-04-23T05:29:59;18.98;;;12.40;;
49458;SDS011;35354;51.296;16.924;2023-04-23T05:32:25;16.13;;;13.07;;
49458;SDS011;35354;51.296;16.924;2023-04-23T05:34:51;19.75;;;13.20;;
49458;SDS011;35354;51.296;16.924;2023-04-23T05:37:16;17.10;;;11.93;;
49458;SDS011;35354;51.296;16.924;2023-04-23T05:39:41;14.00;;;11.13;;
49458;SDS011;35354;51.296;16.924;2023-04-23T05:42:07;16.27;;;12.55;;
49458;SDS011;35354;51.296;16.924;2023-04-23T05:44:32;16.13;;;11.48;;
49458;SDS011;35354;51.296;16.924;2023-04-23T05:46:57;15.85;;;12.18;;
49458;SDS011;35354;51.296;16.924;2023-04-23T05:49:23;12.23;;;10.90;;
49458;SDS011;35354;51.296;16.924;2023-04-23T05:51:48;15.38;;;11.60;;
49458;SDS011;35354;51.296;16.924;2023-04-23T05:54:15;13.57;;;10.05;;
49458;SDS011;35354;51.296;16.924;2023-04-23T05:56:40;14.85;;;11.20;;
49458;SDS011;35354;51.296;16.924;2023-04-23T05:59:06;15.10;;;9.40;;
49458;SDS011;35354;51.296;16.924;2023-04-23T06:01:31;14.95;;;10.90;;
49458;SDS011;35354;51.296;16.924;2023-04-23T06:03:56;13.07;;;10.23;;
49458;SDS011;35354;51.296;16.924;2023-04-23T06:06:22;13.32;;;10.20;;
49458;SDS011;35354;51.296;16.924;2023-04-23T06:08:47;13.80;;;9.70;;
49458;SDS011;35354;51.296;16.924;2023-04-23T06:11:15;14.18;;;10.35;;
49458;SDS011;35354;51.296;16.924;2023-04-23T06:13:40;15.13;;;11.45;;
49458;SDS011;35354;51.296;16.924;2023-04-23T06:16:07;13.73;;;10.80;;
49458;SDS011;35354;51.296;16.924;2023-04-23T06:18:32;15.07;;;10.15;;
49458;SDS011;35354;51.296;16.924;2023-04-23T06:20:58;14.13;;;9.77;;
49458;SDS011;35354;51.296;16.924;2023-04-23T06:23:28;14.85;;;11.15;;
49458;SDS011;35354;51.296;16.924;2023-04-23T06:25:54;14.63;;;10.45;;
49458;SDS011;35354;51.296;16.924;2023-04-23T06:28:19;14.15;;;11.02;;
49458;SDS011;35354;51.296;16.924;2023-04-23T06:30:45;12.82;;;10.55;;
49458;SDS011;35354;51.296;16.924;2023-04-23T06:33:10;16.95;;;11.23;;
49458;SDS011;35354;51.296;16.924;2023-04-23T06:35:36;13.10;;;9.68;;
49458;SDS011;35354;51.296;16.924;2023-04-23T06:38:01;13.10;;;9.90;;
49458;SDS011;35354;51.296;16.924;2023-04-23T06:40:27;14.73;;;10.75;;
49458;SDS011;35354;51.296;16.924;2023-04-23T06:42:52;14.20;;;9.75;;
49458;SDS011;35354;51.296;16.924;2023-04-23T06:45:18;10.27;;;9.18;;
49458;SDS011;35354;51.296;16.924;2023-04-23T06:47:43;12.20;;;10.15;;
49458;SDS011;35354;51.296;16.924;2023-04-23T06:50:09;13.15;;;9.98;;
49458;SDS011;35354;51.296;16.924;2023-04-23T06:52:34;14.60;;;10.55;;
49458;SDS011;35354;51.296;16.924;2023-04-23T06:55:00;11.00;;;9.90;;
49458;SDS011;35354;51.296;16.924;2023-04-23T06:57:26;11.57;;;10.38;;
49458;SDS011;35354;51.296;16.924;2023-04-23T06:59:52;11.07;;;9.68;;
49458;SDS011;35354;51.296;16.924;2023-04-23T07:02:17;14.25;;;10.00;;
49458;SDS011;35354;51.296;16.924;2023-04-23T07:04:43;10.95;;;9.85;;
49458;SDS011;35354;51.296;16.924;2023-04-23T07:07:08;13.77;;;10.43;;
49458;SDS011;35354;51.296;16.924;2023-04-23T07:09:34;14.02;;;9.70;;
49458;SDS011;35354;51.296;16.924;2023-04-23T07:11:59;12.93;;;9.55;;
49458;SDS011;35354;51.296;16.924;2023-04-23T07:14:25;11.75;;;10.65;;
49458;SDS011;35354;51.296;16.924;2023-04-23T07:16:50;17.45;;;11.18;;
49458;SDS011;35354;51.296;16.924;2023-04-23T07:19:16;10.05;;;9.05;;
49458;SDS011;35354;51.296;16.924;2023-04-23T07:21:41;12.77;;;10.35;;
49458;SDS011;35354;51.296;16.924;2023-04-23T07:24:07;10.90;;;9.43;;
49458;SDS011;35354;51.296;16.924;2023-04-23T07:26:32;11.18;;;9.95;;
49458;SDS011;35354;51.296;16.924;2023-04-23T07:28:58;11.63;;;10.23;;
49458;SDS011;35354;51.296;16.924;2023-04-23T07:31:25;10.85;;;9.75;;
49458;SDS011;35354;51.296;16.924;2023-04-23T07:33:50;11.55;;;9.73;;
49458;SDS011;35354;51.296;16.924;2023-04-23T07:36:16;11.15;;;9.52;;
49458;SDS011;35354;51.296;16.924;2023-04-23T07:38:41;10.77;;;9.13;;
49458;SDS011;35354;51.296;16.924;2023-04-23T07:41:07;10.68;;;8.98;;
49458;SDS011;35354;51.296;16.924;2023-04-23T07:43:32;10.55;;;9.48;;
49458;SDS011;35354;51.296;16.924;2023-04-23T07:45:57;13.88;;;9.65;;
49458;SDS011;35354;51.296;16.924;2023-04-23T07:48:23;13.02;;;9.55;;
49458;SDS011;35354;51.296;16.924;2023-04-23T07:50:48;11.25;;;9.73;;
49458;SDS011;35354;51.296;16.924;2023-04-23T07:53:13;10.73;;;9.60;;
49458;SDS011;35354;51.296;16.924;2023-04-23T07:55:39;12.25;;;9.10;;
49458;SDS011;35354;51.296;16.924;2023-04-23T07:58:04;9.82;;;8.88;;
49458;SDS011;35354;51.296;16.924;2023-04-23T08:00:30;10.68;;;8.77;;
49458;SDS011;35354;51.296;16.924;2023-04-23T08:02:55;17.80;;;9.77;;
49458;SDS011;35354;51.296;16.924;2023-04-23T08:05:20;8.93;;;7.88;;
49458;SDS011;35354;51.296;16.924;2023-04-23T08:07:46;11.18;;;7.80;;
49458;SDS011;35354;51.296;16.924;2023-04-23T08:10:11;11.68;;;8.05;;
49458;SDS011;35354;51.296;16.924;2023-04-23T08:12:36;11.25;;;7.72;;
49458;SDS011;35354;51.296;16.924;2023-04-23T08:15:02;8.90;;;8.00;;
49458;SDS011;35354;51.296;16.924;2023-04-23T08:17:27;8.63;;;7.80;;
49458;SDS011;35354;51.296;16.924;2023-04-23T08:19:53;7.85;;;7.07;;
49458;SDS011;35354;51.296;16.924;2023-04-23T08:22:18;9.10;;;8.20;;
49458;SDS011;35354;51.296;16.924;2023-04-23T08:24:43;10.05;;;7.93;;
49458;SDS011;35354;51.296;16.924;2023-04-23T08:27:10;8.88;;;7.00;;
49458;SDS011;35354;51.296;16.924;2023-04-23T08:29:35;11.18;;;7.30;;
49458;SDS011;35354;51.296;16.924;2023-04-23T08:32:01;11.27;;;7.22;;
49458;SDS011;35354;51.296;16.924;2023-04-23T08:34:26;10.18;;;7.70;;
49458;SDS011;35354;51.296;16.924;2023-04-23T08:36:52;10.02;;;7.95;;
49458;SDS011;35354;51.296;16.924;2023-04-23T08:39:17;10.98;;;7.57;;
49458;SDS011;35354;51.296;16.924;2023-04-23T08:41:42;10.10;;;7.78;;
49458;SDS011;35354;51.296;16.924;2023-04-23T08:44:16;10.65;;;8.70;;
49458;SDS011;35354;51.296;16.924;2023-04-23T08:46:43;11.05;;;7.32;;
49458;SDS011;35354;51.296;16.924;2023-04-23T08:49:12;11.90;;;7.25;;
49458;SDS011;35354;51.296;16.924;2023-04-23T08:51:40;13.60;;;7.15;;
49458;SDS011;35354;51.296;16.924;2023-04-23T08:54:11;11.82;;;7.95;;
49458;SDS011;35354;51.296;16.924;2023-04-23T08:56:42;12.88;;;7.40;;
49458;SDS011;35354;51.296;16.924;2023-04-23T08:59:08;9.57;;;7.05;;
49458;SDS011;35354;51.296;16.924;2023-04-23T09:01:34;10.88;;;7.70;;
49458;SDS011;35354;51.296;16.924;2023-04-23T09:04:00;8.80;;;7.40;;
49458;SDS011;35354;51.296;16.924;2023-04-23T09:06:26;15.27;;;7.22;;
49458;SDS011;35354;51.296;16.924;2023-04-23T09:08:52;9.10;;;7.05;;
49458;SDS011;35354;51.296;16.924;2023-04-23T09:11:19;13.73;;;6.78;;
49458;SDS011;35354;51.296;16.924;2023-04-23T09:13:46;8.38;;;6.95;;
49458;SDS011;35354;51.296;16.924;2023-04-23T09:16:11;9.02;;;7.20;;
49458;SDS011;35354;51.296;16.924;2023-04-23T09:18:37;10.75;;;7.38;;
49458;SDS011;35354;51.296;16.924;2023-04-23T09:21:02;12.43;;;7.70;;
49458;SDS011;35354;51.296;16.924;2023-04-23T09:23:29;9.48;;;7.60;;
49458;SDS011;35354;51.296;16.924;2023-04-23T09:25:56;12.13;;;6.90;;
49458;SDS011;35354;51.296;16.924;2023-04-23T09:28:21;10.07;;;6.30;;
49458;SDS011;35354;51.296;16.924;2023-04-23T09:30:58;10.50;;;7.65;;
49458;SDS011;35354;51.296;16.924;2023-04-23T09:33:24;10.85;;;7.32;;
49458;SDS011;35354;51.296;16.924;2023-04-23T09:35:52;9.45;;;6.70;;
49458;SDS011;35354;51.296;16.924;2023-04-23T09:38:18;11.38;;;6.53;;
49458;SDS011;35354;51.296;16.924;2023-04-23T09:40:43;10.45;;;6.78;;
49458;SDS011;35354;51.296;16.924;2023-04-23T09:43:09;9.77;;;6.35;;
49458;SDS011;35354;51.296;16.924;2023-04-23T09:45:35;8.02;;;5.75;;
49458;SDS011;35354;51.296;16.924;2023-04-23T09:48:00;7.85;;;6.13;;
49458;SDS011;35354;51.296;16.924;2023-04-23T09:50:35;8.20;;;5.63;;
49458;SDS011;35354;51.296;16.924;2023-04-23T09:53:05;8.02;;;6.00;;
49458;SDS011;35354;51.296;16.924;2023-04-23T09:55:36;8.23;;;6.28;;
49458;SDS011;35354;51.296;16.924;2023-04-23T09:58:09;11.73;;;6.30;;
49458;SDS011;35354;51.296;16.924;2023-04-23T10:00:36;7.78;;;5.22;;
49458;SDS011;35354;51.296;16.924;2023-04-23T10:03:02;6.43;;;5.63;;
49458;SDS011;35354;51.296;16.924;2023-04-23T10:05:30;6.28;;;5.57;;
49458;SDS011;35354;51.296;16.924;2023-04-23T10:07:56;5.38;;;4.75;;
49458;SDS011;35354;51.296;16.924;2023-04-23T10:10:21;9.68;;;5.50;;
49458;SDS011;35354;51.296;16.924;2023-04-23T10:12:49;5.65;;;4.82;;
49458;SDS011;35354;51.296;16.924;2023-04-23T10:15:16;10.57;;;6.13;;
49458;SDS011;35354;51.296;16.924;2023-04-23T10:17:41;11.25;;;5.45;;
49458;SDS011;35354;51.296;16.924;2023-04-23T10:20:08;7.10;;;5.28;;
49458;SDS011;35354;51.296;16.924;2023-04-23T10:22:34;8.90;;;5.00;;
49458;SDS011;35354;51.296;16.924;2023-04-23T10:25:07;8.10;;;5.75;;
49458;SDS011;35354;51.296;16.924;2023-04-23T10:27:36;9.55;;;7.18;;
49458;SDS011;35354;51.296;16.924;2023-04-23T10:30:04;8.25;;;5.85;;
49458;SDS011;35354;51.296;16.924;2023-04-23T10:32:30;8.68;;;6.95;;
49458;SDS011;35354;51.296;16.924;2023-04-23T10:34:57;11.93;;;7.50;;
49458;SDS011;35354;51.296;16.924;2023-04-23T10:37:22;10.20;;;7.30;;
49458;SDS011;35354;51.296;16.924;2023-04-23T10:39:49;10.95;;;6.07;;
49458;SDS011;35354;51.296;16.924;2023-04-23T10:42:19;10.18;;;6.50;;
49458;SDS011;35354;51.296;16.924;2023-04-23T10:44:45;9.30;;;6.03;;
49458;SDS011;35354;51.296;16.924;2023-04-23T10:47:14;8.38;;;6.35;;
49458;SDS011;35354;51.296;16.924;2023-04-23T10:49:43;7.47;;;5.53;;
49458;SDS011;35354;51.296;16.924;2023-04-23T10:52:10;9.23;;;5.00;;
49458;SDS011;35354;51.296;16.924;2023-04-23T10:54:40;8.55;;;5.40;;
49458;SDS011;35354;51.296;16.924;2023-04-23T10:57:07;5.90;;;4.97;;
49458;SDS011;35354;51.296;16.924;2023-04-23T10:59:37;9.32;;;5.28;;
49458;SDS011;35354;51.296;16.924;2023-04-23T11:02:05;10.10;;;5.72;;
49458;SDS011;35354;51.296;16.924;2023-04-23T11:04:31;8.10;;;5.80;;
49458;SDS011;35354;51.296;16.924;2023-04-23T11:07:05;7.07;;;6.00;;
49458;SDS011;35354;51.296;16.924;2023-04-23T11:12:04;6.25;;;5.30;;
49458;SDS011;35354;51.296;16.924;2023-04-23T11:14:56;5.82;;;5.03;;
49458;SDS011;35354;51.296;16.924;2023-04-23T11:17:57;6.75;;;5.05;;
49458;SDS011;35354;51.296;16.924;2023-04-23T11:20:09;6.28;;;5.13;;
49458;SDS011;35354;51.296;16.924;2023-04-23T11:22:49;8.73;;;5.20;;
49458;SDS011;35354;51.296;16.924;2023-04-23T11:25:20;7.30;;;4.88;;
49458;SDS011;35354;51.296;16.924;2023-04-23T11:27:52;5.90;;;4.70;;
49458;SDS011;35354;51.296;16.924;2023-04-23T11:32:53;6.18;;;4.30;;
49458;SDS011;35354;51.296;16.924;2023-04-23T11:35:20;5.53;;;4.38;;
49458;SDS011;35354;51.296;16.924;2023-04-23T11:37:47;4.80;;;4.07;;
49458;SDS011;35354;51.296;16.924;2023-04-23T11:40:17;8.00;;;4.18;;
49458;SDS011;35354;51.296;16.924;2023-04-23T11:42:49;4.50;;;4.07;;
49458;SDS011;35354;51.296;16.924;2023-04-23T11:45:22;5.40;;;4.80;;
49458;SDS011;35354;51.296;16.924;2023-04-23T11:47:55;6.82;;;5.05;;
49458;SDS011;35354;51.296;16.924;2023-04-23T11:50:23;7.38;;;4.40;;
49458;SDS011;35354;51.296;16.924;2023-04-23T11:52:53;5.03;;;4.40;;
49458;SDS011;35354;51.296;16.924;2023-04-23T11:55:19;6.80;;;3.95;;
49458;SDS011;35354;51.296;16.924;2023-04-23T11:57:46;7.95;;;4.50;;
49458;SDS011;35354;51.296;16.924;2023-04-23T12:00:14;6.10;;;4.57;;
49458;SDS011;35354;51.296;16.924;2023-04-23T12:02:53;8.52;;;5.13;;
49458;SDS011;35354;51.296;16.924;2023-04-23T12:05:27;6.95;;;4.88;;
49458;SDS011;35354;51.296;16.924;2023-04-23T12:07:53;8.40;;;5.00;;
49458;SDS011;35354;51.296;16.924;2023-04-23T12:10:19;6.43;;;4.90;;
49458;SDS011;35354;51.296;16.924;2023-04-23T12:12:49;4.95;;;4.47;;
49458;SDS011;35354;51.296;16.924;2023-04-23T12:15:15;5.47;;;4.97;;
49458;SDS011;35354;51.296;16.924;2023-04-23T12:17:41;5.30;;;4.50;;
49458;SDS011;35354;51.296;16.924;2023-04-23T12:20:08;6.85;;;4.15;;
49458;SDS011;35354;51.296;16.924;2023-04-23T12:22:37;5.70;;;3.93;;
49458;SDS011;35354;51.296;16.924;2023-04-23T12:25:04;5.32;;;4.53;;
49458;SDS011;35354;51.296;16.924;2023-04-23T12:27:37;5.15;;;4.57;;
49458;SDS011;35354;51.296;16.924;2023-04-23T12:30:04;10.57;;;4.57;;
49458;SDS011;35354;51.296;16.924;2023-04-23T12:32:31;6.07;;;4.38;;
49458;SDS011;35354;51.296;16.924;2023-04-23T12:34:58;6.68;;;4.80;;
49458;SDS011;35354;51.296;16.924;2023-04-23T12:37:27;5.28;;;4.20;;
49458;SDS011;35354;51.296;16.924;2023-04-23T12:39:54;6.13;;;4.82;;
49458;SDS011;35354;51.296;16.924;2023-04-23T12:42:22;6.93;;;5.03;;
49458;SDS011;35354;51.296;16.924;2023-04-23T12:44:47;6.00;;;4.88;;
49458;SDS011;35354;51.296;16.924;2023-04-23T12:47:15;5.97;;;4.28;;
49458;SDS011;35354;51.296;16.924;2023-04-23T12:49:41;6.70;;;5.07;;
49458;SDS011;35354;51.296;16.924;2023-04-23T12:52:07;6.70;;;5.03;;
49458;SDS011;35354;51.296;16.924;2023-04-23T12:54:33;6.22;;;4.82;;
49458;SDS011;35354;51.296;16.924;2023-04-23T12:57:06;6.28;;;5.22;;
49458;SDS011;35354;51.296;16.924;2023-04-23T12:59:33;6.82;;;4.75;;
49458;SDS011;35354;51.296;16.924;2023-04-23T13:01:58;9.07;;;5.47;;
49458;SDS011;35354;51.296;16.924;2023-04-23T13:04:26;6.28;;;5.15;;
49458;SDS011;35354;51.296;16.924;2023-04-23T13:06:52;5.43;;;4.88;;
49458;SDS011;35354;51.296;16.924;2023-04-23T13:09:18;6.40;;;4.38;;
49458;SDS011;35354;51.296;16.924;2023-04-23T13:11:45;4.47;;;4.07;;
49458;SDS011;35354;51.296;16.924;2023-04-23T13:14:12;4.47;;;3.95;;
49458;SDS011;35354;51.296;16.924;2023-04-23T13:16:37;4.63;;;3.58;;
49458;SDS011;35354;51.296;16.924;2023-04-23T13:19:03;4.68;;;3.38;;
49458;SDS011;35354;51.296;16.924;2023-04-23T13:21:29;4.55;;;3.22;;
49458;SDS011;35354;51.296;16.924;2023-04-23T13:23:55;5.18;;;3.53;;
49458;SDS011;35354;51.296;16.924;2023-04-23T13:26:20;4.13;;;3.20;;
49458;SDS011;35354;51.296;16.924;2023-04-23T13:28:46;4.68;;;3.22;;
49458;SDS011;35354;51.296;16.924;2023-04-23T13:31:11;7.53;;;2.90;;
49458;SDS011;35354;51.296;16.924;2023-04-23T13:33:37;3.75;;;2.80;;
49458;SDS011;35354;51.296;16.924;2023-04-23T13:36:03;4.28;;;2.92;;
49458;SDS011;35354;51.296;16.924;2023-04-23T13:38:29;4.53;;;3.00;;
49458;SDS011;35354;51.296;16.924;2023-04-23T13:40:55;4.15;;;3.50;;
49458;SDS011;35354;51.296;16.924;2023-04-23T13:43:21;3.40;;;3.10;;
49458;SDS011;35354;51.296;16.924;2023-04-23T13:45:46;4.18;;;3.00;;
49458;SDS011;35354;51.296;16.924;2023-04-23T13:48:13;5.10;;;2.90;;
49458;SDS011;35354;51.296;16.924;2023-04-23T13:50:39;2.88;;;2.67;;
49458;SDS011;35354;51.296;16.924;2023-04-23T13:53:05;3.38;;;3.08;;
49458;SDS011;35354;51.296;16.924;2023-04-23T13:55:30;5.05;;;3.03;;
49458;SDS011;35354;51.296;16.924;2023-04-23T13:57:56;5.85;;;3.00;;
49458;SDS011;35354;51.296;16.924;2023-04-23T14:00:23;3.35;;;3.05;;
49458;SDS011;35354;51.296;16.924;2023-04-23T14:02:51;4.40;;;3.45;;
49458;SDS011;35354;51.296;16.924;2023-04-23T14:05:16;4.50;;;3.15;;
49458;SDS011;35354;51.296;16.924;2023-04-23T14:07:41;5.25;;;3.17;;
49458;SDS011;35354;51.296;16.924;2023-04-23T14:10:07;4.03;;;3.40;;
49458;SDS011;35354;51.296;16.924;2023-04-23T14:12:33;4.18;;;3.20;;
49458;SDS011;35354;51.296;16.924;2023-04-23T14:14:58;4.10;;;3.33;;
49458;SDS011;35354;51.296;16.924;2023-04-23T14:17:23;5.60;;;3.33;;
49458;SDS011;35354;51.296;16.924;2023-04-23T14:19:49;4.75;;;3.20;;